createdAt,value
2018-07-09T00:02:06.208Z,101392.05
2018-07-09T00:04:34.289Z,101383.61
2018-07-09T00:07:02.314Z,101386.76
2018-07-09T00:09:30.297Z,101387.38
2018-07-09T00:11:58.289Z,101383.02
2018-07-09T00:14:26.295Z,101387.73
2018-07-09T00:16:54.273Z,101382.27
2018-07-09T00:19:22.262Z,101373.37
2018-07-09T00:21:50.236Z,101374.12
2018-07-09T00:24:18.267Z,101372.00
2018-07-09T00:26:46.356Z,101368.25
2018-07-09T00:29:14.345Z,101376.63
2018-07-09T00:31:42.324Z,101371.44
2018-07-09T00:34:10.300Z,101372.71
2018-07-09T00:36:38.288Z,101370.33
2018-07-09T00:39:06.818Z,101368.91
2018-07-09T00:41:36.033Z,101372.37
2018-07-09T00:44:04.050Z,101374.42
2018-07-09T00:46:32.065Z,101371.44
2018-07-09T00:49:00.553Z,101365.28
2018-07-09T00:51:28.565Z,101365.91
2018-07-09T00:53:57.369Z,101368.73
2018-07-09T00:56:25.377Z,101365.28
2018-07-09T00:58:53.411Z,101368.04
2018-07-09T01:01:21.418Z,101365.42
2018-07-09T01:03:49.413Z,101365.11
2018-07-09T01:06:17.428Z,101369.20
2018-07-09T01:08:45.474Z,101364.41
2018-07-09T01:11:25.254Z,101363.56
2018-07-09T01:13:53.253Z,101371.38
2018-07-09T01:16:21.289Z,101367.02
2018-07-09T01:18:49.294Z,101363.66
2018-07-09T01:21:17.296Z,101365.56
2018-07-09T01:23:45.313Z,101359.38
2018-07-09T01:26:13.327Z,101367.94
2018-07-09T01:28:42.053Z,101370.33
2018-07-09T01:31:10.085Z,101363.10
2018-07-09T01:33:38.056Z,101362.31
2018-07-09T01:36:06.061Z,101360.99
2018-07-09T01:38:34.072Z,101366.91
2018-07-09T01:41:02.097Z,101354.13
2018-07-09T01:43:30.113Z,101351.38
2018-07-09T01:45:58.108Z,101347.12
2018-07-09T01:48:26.640Z,101346.25
2018-07-09T01:50:54.658Z,101356.39
2018-07-09T01:53:22.644Z,101347.28
2018-07-09T01:55:50.627Z,101349.90
2018-07-09T01:58:18.623Z,101347.88
2018-07-09T02:00:46.718Z,101345.73
2018-07-09T02:03:14.695Z,101347.79
2018-07-09T02:05:42.698Z,101341.90
2018-07-09T02:08:10.731Z,101347.65
2018-07-09T02:10:38.849Z,101349.53
2018-07-09T02:13:07.173Z,101346.39
2018-07-09T02:15:35.169Z,101342.88
2018-07-09T02:18:03.154Z,101352.48
2018-07-09T02:20:31.229Z,101350.98
2018-07-09T02:22:59.173Z,101359.98
2018-07-09T02:25:27.288Z,101355.07
2018-07-09T02:27:55.356Z,101352.89
2018-07-09T02:30:23.382Z,101355.00
2018-07-09T02:32:51.356Z,101352.81
2018-07-09T02:35:19.342Z,101357.17
2018-07-09T02:37:47.353Z,101352.19
2018-07-09T02:40:15.341Z,101355.19
2018-07-09T02:42:43.498Z,101347.59
2018-07-09T02:45:11.509Z,101350.91
2018-07-09T02:47:39.528Z,101351.75
2018-07-09T02:50:07.533Z,101348.70
2018-07-09T02:52:35.525Z,101351.70
2018-07-09T02:55:03.493Z,101350.97
2018-07-09T02:57:31.549Z,101345.94
2018-07-09T02:59:59.551Z,101350.39
2018-07-09T03:02:27.600Z,101346.39
2018-07-09T03:04:55.701Z,101353.95
2018-07-09T03:07:24.398Z,101356.22
2018-07-09T03:09:52.389Z,101354.50
2018-07-09T03:12:20.393Z,101363.81
2018-07-09T03:14:48.377Z,101366.13
2018-07-09T03:17:16.363Z,101365.91
2018-07-09T03:19:44.368Z,101365.92
2018-07-09T03:22:12.373Z,101363.31
2018-07-09T03:24:40.409Z,101361.12
2018-07-09T03:27:08.476Z,101364.33
2018-07-09T03:29:36.650Z,101368.50
2018-07-09T03:32:04.769Z,101364.83
2018-07-09T03:34:32.821Z,101358.08
2018-07-09T03:37:00.789Z,101357.09
2018-07-09T03:39:28.841Z,101346.80
2018-07-09T03:41:56.844Z,101348.55
2018-07-09T03:44:24.853Z,101343.77
2018-07-09T03:46:52.854Z,101343.89
2018-07-09T03:49:20.861Z,101345.37
2018-07-09T03:51:48.868Z,101340.08
2018-07-09T03:54:16.847Z,101344.07
2018-07-09T03:56:44.845Z,101341.56
2018-07-09T03:59:12.825Z,101345.81
2018-07-09T04:01:40.796Z,101347.63
2018-07-09T04:04:08.809Z,101344.61
2018-07-09T04:06:36.774Z,101348.70
2018-07-09T04:09:04.796Z,101342.98
2018-07-09T04:11:32.788Z,101345.92
2018-07-09T04:14:00.981Z,101340.75
2018-07-09T04:16:28.996Z,101345.16
2018-07-09T04:18:56.997Z,101339.17
2018-07-09T04:21:24.993Z,101342.56
2018-07-09T04:23:53.017Z,101363.23
2018-07-09T04:26:21.068Z,101350.36
2018-07-09T04:28:49.208Z,101358.83
2018-07-09T04:31:17.221Z,101361.84
2018-07-09T04:33:45.313Z,101362.17
2018-07-09T04:36:13.325Z,101370.31
2018-07-09T04:38:41.336Z,101368.97
2018-07-09T04:41:09.873Z,101360.56
2018-07-09T04:43:37.868Z,101355.61
2018-07-09T04:46:06.049Z,101355.72
2018-07-09T04:48:34.048Z,101357.72
2018-07-09T04:51:03.278Z,101357.89
2018-07-09T04:53:31.300Z,101357.48
2018-07-09T04:55:59.291Z,101348.03
2018-07-09T04:58:27.268Z,101353.97
2018-07-09T05:00:55.289Z,101346.28
2018-07-09T05:03:29.929Z,101346.19
2018-07-09T05:05:57.985Z,101348.11
2018-07-09T05:08:25.981Z,101350.31
2018-07-09T05:10:53.981Z,101346.28
2018-07-09T05:13:21.980Z,101343.83
2018-07-09T05:15:49.976Z,101348.09
2018-07-09T05:18:17.964Z,101345.81
2018-07-09T05:20:46.020Z,101344.44
2018-07-09T05:23:13.945Z,101348.05
2018-07-09T05:25:41.983Z,101349.23
2018-07-09T05:28:10.463Z,101346.55
2018-07-09T05:30:38.461Z,101348.86
2018-07-09T05:33:06.480Z,101338.86
2018-07-09T05:35:34.428Z,101343.95
2018-07-09T05:38:02.444Z,101353.64
2018-07-09T05:40:30.460Z,101350.38
2018-07-09T05:42:58.584Z,101351.78
2018-07-09T05:45:26.581Z,101361.88
2018-07-09T05:47:54.590Z,101362.67
2018-07-09T05:50:22.688Z,101369.08
2018-07-09T05:52:50.689Z,101366.11
2018-07-09T05:55:18.701Z,101366.48
2018-07-09T05:57:46.676Z,101359.09
2018-07-09T06:00:14.690Z,101365.13
2018-07-09T06:02:42.817Z,101360.11
2018-07-09T06:05:10.802Z,101356.36
2018-07-09T06:07:38.784Z,101354.71
2018-07-09T06:10:06.770Z,101354.37
2018-07-09T06:12:34.757Z,101354.19
2018-07-09T06:15:02.824Z,101353.59
2018-07-09T06:17:30.741Z,101352.66
2018-07-09T06:19:59.678Z,101343.67
2018-07-09T06:22:27.679Z,101337.23
2018-07-09T06:24:55.677Z,101339.26
2018-07-09T06:27:23.840Z,101334.98
2018-07-09T06:29:51.833Z,101333.61
2018-07-09T06:32:19.841Z,101326.98
2018-07-09T06:34:47.870Z,101336.58
2018-07-09T06:37:15.852Z,101336.05
2018-07-09T06:39:43.857Z,101326.50
2018-07-09T06:42:11.837Z,101324.81
2018-07-09T06:44:39.892Z,101327.02
2018-07-09T06:47:07.852Z,101324.89
2018-07-09T06:49:35.852Z,101321.57
2018-07-09T06:52:04.340Z,101320.36
2018-07-09T06:54:32.316Z,101327.36
2018-07-09T06:57:00.288Z,101334.91
2018-07-09T06:59:28.284Z,101334.84
2018-07-09T07:01:56.265Z,101330.38
2018-07-09T07:04:24.362Z,101323.46
2018-07-09T07:06:52.346Z,101321.28
2018-07-09T07:09:20.353Z,101316.55
2018-07-09T07:11:48.338Z,101325.00
2018-07-09T07:14:16.390Z,101318.73
2018-07-09T07:16:44.345Z,101324.89
2018-07-09T07:19:12.349Z,101321.77
2018-07-09T07:21:40.360Z,101325.45
2018-07-09T07:24:08.560Z,101326.48
2018-07-09T07:26:36.595Z,101325.44
2018-07-09T07:29:04.681Z,101322.63
2018-07-09T07:31:32.649Z,101330.81
2018-07-09T07:34:00.633Z,101320.73
2018-07-09T07:36:28.609Z,101325.59
2018-07-09T07:38:56.576Z,101317.67
2018-07-09T07:41:24.576Z,101320.14
2018-07-09T07:43:52.580Z,101320.58
2018-07-09T07:46:20.566Z,101322.63
2018-07-09T07:48:48.557Z,101324.68
2018-07-09T07:51:16.528Z,101317.53
2018-07-09T07:53:44.512Z,101310.61
2018-07-09T07:56:12.511Z,101306.24
2018-07-09T07:58:40.504Z,101307.89
2018-07-09T08:01:08.496Z,101304.63
2018-07-09T08:03:36.489Z,101302.88
2018-07-09T08:06:05.564Z,101298.77
2018-07-09T08:08:33.545Z,101304.72
2018-07-09T08:11:10.910Z,101297.13
2018-07-09T08:13:29.597Z,101300.23
2018-07-09T08:15:57.538Z,101300.81
2018-07-09T08:18:25.524Z,101301.66
2018-07-09T08:20:53.509Z,101303.36
2018-07-09T08:23:21.509Z,101311.00
2018-07-09T08:25:49.521Z,101308.11
2018-07-09T08:28:17.554Z,101300.95
2018-07-09T08:30:45.531Z,101297.16
2018-07-09T08:33:13.529Z,101280.47
2018-07-09T08:35:41.508Z,101277.86
2018-07-09T08:38:09.488Z,101271.63
2018-07-09T08:40:37.499Z,101274.84
2018-07-09T08:43:05.585Z,101274.23
2018-07-09T08:45:33.588Z,101273.94
2018-07-09T08:48:01.577Z,101269.30
2018-07-09T08:50:29.560Z,101274.31
2018-07-09T08:52:57.548Z,101266.56
2018-07-09T08:55:26.417Z,101272.87
2018-07-09T08:57:54.407Z,101275.10
2018-07-09T09:00:22.893Z,101270.73
2018-07-09T09:02:51.121Z,101266.10
2018-07-09T09:05:19.112Z,101259.55
2018-07-09T09:07:47.136Z,101251.76
2018-07-09T09:10:15.198Z,101253.47
2018-07-09T09:12:43.197Z,101255.50
2018-07-09T09:15:11.248Z,101245.08
2018-07-09T09:17:39.249Z,101249.38
2018-07-09T09:20:07.302Z,101257.67
2018-07-09T09:22:35.288Z,101256.52
2018-07-09T09:25:03.292Z,101264.83
2018-07-09T09:27:31.277Z,101253.49
2018-07-09T09:29:59.288Z,101262.92
2018-07-09T09:32:27.272Z,101251.27
2018-07-09T09:34:55.291Z,101254.06
2018-07-09T09:37:23.310Z,101253.73
2018-07-09T09:39:51.550Z,101260.55
2018-07-09T09:42:19.541Z,101256.73
2018-07-09T09:44:47.534Z,101260.91
2018-07-09T09:47:15.546Z,101244.09
2018-07-09T09:49:43.538Z,101248.58
2018-07-09T09:52:11.625Z,101253.80
2018-07-09T09:54:39.640Z,101243.21
2018-07-09T09:57:07.696Z,101243.59
2018-07-09T09:59:35.712Z,101245.74
2018-07-09T10:02:03.729Z,101229.72
2018-07-09T10:04:32.300Z,101236.41
2018-07-09T10:07:00.294Z,101236.80
2018-07-09T10:09:28.316Z,101239.33
2018-07-09T10:11:56.345Z,101240.52
2018-07-09T10:14:24.340Z,101237.81
2018-07-09T10:16:52.487Z,101242.55
2018-07-09T10:19:20.523Z,101234.70
2018-07-09T10:21:48.526Z,101230.70
2018-07-09T10:24:16.550Z,101232.41
2018-07-09T10:26:44.578Z,101222.58
2018-07-09T10:29:12.604Z,101222.57
2018-07-09T10:31:40.625Z,101214.14
2018-07-09T10:34:08.633Z,101211.42
2018-07-09T10:36:36.649Z,101210.65
2018-07-09T10:39:05.593Z,101213.66
2018-07-09T10:41:33.620Z,101202.02
2018-07-09T10:44:01.618Z,101200.36
2018-07-09T10:46:30.458Z,101199.00
2018-07-09T10:48:58.468Z,101194.08
2018-07-09T10:51:26.513Z,101195.72
2018-07-09T10:53:54.500Z,101198.42
2018-07-09T10:56:22.515Z,101192.78
2018-07-09T10:58:50.532Z,101202.73
2018-07-09T11:01:18.520Z,101203.92
2018-07-09T11:03:46.520Z,101196.61
2018-07-09T11:06:14.540Z,101196.98
2018-07-09T11:08:42.529Z,101191.92
2018-07-09T11:11:10.552Z,101188.34
2018-07-09T11:13:38.554Z,101193.89
2018-07-09T11:16:06.570Z,101194.38
2018-07-09T11:18:34.600Z,101189.52
2018-07-09T11:21:02.609Z,101186.42
2018-07-09T11:23:30.652Z,101182.41
2018-07-09T11:25:58.668Z,101195.60
2018-07-09T11:28:26.687Z,101177.52
2018-07-09T11:30:54.656Z,101176.03
2018-07-09T11:33:22.644Z,101177.54
2018-07-09T11:35:50.645Z,101180.45
2018-07-09T11:38:18.636Z,101179.10
2018-07-09T11:40:46.648Z,101178.08
2018-07-09T11:43:14.630Z,101180.59
2018-07-09T11:45:42.629Z,101173.33
2018-07-09T11:48:10.663Z,101165.25
2018-07-09T11:50:38.749Z,101162.53
2018-07-09T11:53:06.697Z,101168.22
2018-07-09T11:55:34.694Z,101169.89
2018-07-09T11:58:02.692Z,101164.12
2018-07-09T12:00:30.678Z,101169.48
2018-07-09T12:02:58.672Z,101163.81
2018-07-09T12:05:26.689Z,101173.55
2018-07-09T12:07:54.724Z,101165.17
2018-07-09T12:10:22.729Z,101161.59
2018-07-09T12:12:50.730Z,101165.80
2018-07-09T12:15:18.729Z,101166.16
2018-07-09T12:17:46.714Z,101166.91
2018-07-09T12:20:14.798Z,101173.83
2018-07-09T12:22:42.977Z,101166.94
2018-07-09T12:25:10.989Z,101168.50
2018-07-09T12:27:39.064Z,101162.00
2018-07-09T12:30:07.053Z,101162.46
2018-07-09T12:32:35.056Z,101163.33
2018-07-09T12:35:03.069Z,101161.28
2018-07-09T12:37:31.104Z,101167.20
2018-07-09T12:39:59.152Z,101170.27
2018-07-09T12:42:27.637Z,101164.86
2018-07-09T12:44:55.627Z,101173.50
2018-07-09T12:47:23.645Z,101170.89
2018-07-09T12:49:51.670Z,101164.68
2018-07-09T12:52:19.697Z,101163.81
2018-07-09T12:54:47.713Z,101166.36
2018-07-09T12:57:15.709Z,101165.94
2018-07-09T12:59:43.720Z,101173.28
2018-07-09T13:02:11.708Z,101169.06
2018-07-09T13:04:39.747Z,101164.91
2018-07-09T13:07:07.778Z,101170.63
2018-07-09T13:09:35.816Z,101168.03
2018-07-09T13:12:03.806Z,101174.20
2018-07-09T13:14:31.914Z,101174.47
2018-07-09T13:16:59.879Z,101168.17
2018-07-09T13:19:27.972Z,101173.66
2018-07-09T13:21:56.060Z,101166.16
2018-07-09T13:24:24.080Z,101165.12
2018-07-09T13:26:52.093Z,101176.48
2018-07-09T13:29:20.116Z,101174.02
2018-07-09T13:31:48.856Z,101170.30
2018-07-09T13:34:16.849Z,101175.52
2018-07-09T13:36:44.860Z,101180.50
2018-07-09T13:39:12.865Z,101170.44
2018-07-09T13:41:40.877Z,101176.82
2018-07-09T13:44:08.882Z,101173.76
2018-07-09T13:46:36.938Z,101178.59
2018-07-09T13:49:04.979Z,101173.52
2018-07-09T13:51:32.916Z,101180.05
2018-07-09T13:54:00.936Z,101182.45
2018-07-09T13:56:29.041Z,101174.70
2018-07-09T13:58:57.033Z,101177.02
2018-07-09T14:01:25.012Z,101171.64
2018-07-09T14:03:53.004Z,101173.97
2018-07-09T14:06:20.993Z,101163.20
2018-07-09T14:08:49.007Z,101169.02
2018-07-09T14:11:17.005Z,101165.34
2018-07-09T14:13:45.001Z,101170.86
2018-07-09T14:16:13.017Z,101173.53
2018-07-09T14:18:41.702Z,101161.55
2018-07-09T14:21:09.736Z,101164.08
2018-07-09T14:23:37.777Z,101159.72
2018-07-09T14:26:05.773Z,101162.59
2018-07-09T14:28:33.769Z,101166.89
2018-07-09T14:31:01.738Z,101162.52
2018-07-09T14:33:29.736Z,101160.52
2018-07-09T14:35:57.727Z,101169.33
2018-07-09T14:38:25.744Z,101161.77
2018-07-09T14:40:53.736Z,101159.22
2018-07-09T14:43:21.725Z,101162.45
2018-07-09T14:45:49.707Z,101154.47
2018-07-09T14:48:17.699Z,101155.23
2018-07-09T14:50:45.676Z,101156.22
2018-07-09T14:53:13.689Z,101149.20
2018-07-09T14:55:41.676Z,101149.66
2018-07-09T14:58:09.688Z,101144.67
2018-07-09T15:00:37.695Z,101139.32
2018-07-09T15:03:05.739Z,101141.73
2018-07-09T15:05:33.764Z,101143.35
2018-07-09T15:08:01.725Z,101137.72
2018-07-09T15:10:29.700Z,101128.51
2018-07-09T15:12:57.696Z,101132.82
2018-07-09T15:15:25.690Z,101134.31
2018-07-09T15:17:53.691Z,101126.70
2018-07-09T15:20:21.719Z,101118.39
2018-07-09T15:22:50.379Z,101115.34
2018-07-09T15:25:18.387Z,101113.26
2018-07-09T15:27:46.457Z,101119.80
2018-07-09T15:30:14.465Z,101119.48
2018-07-09T15:32:42.465Z,101112.30
2018-07-09T15:35:10.522Z,101118.26
2018-07-09T15:37:38.503Z,101109.09
2018-07-09T15:40:06.528Z,101109.01
2018-07-09T15:42:34.553Z,101107.10
2018-07-09T15:45:02.500Z,101103.09
2018-07-09T15:47:30.533Z,101098.05
2018-07-09T15:49:58.541Z,101099.56
2018-07-09T15:52:26.524Z,101092.29
2018-07-09T15:54:54.532Z,101093.10
2018-07-09T15:57:22.511Z,101085.43
2018-07-09T15:59:50.519Z,101092.07
2018-07-09T16:02:18.524Z,101082.09
2018-07-09T16:04:46.544Z,101080.77
2018-07-09T16:07:14.629Z,101063.93
2018-07-09T16:09:42.655Z,101064.24
2018-07-09T16:12:10.864Z,101065.47
2018-07-09T16:14:38.972Z,101057.72
2018-07-09T16:17:06.973Z,101051.22
2018-07-09T16:19:35.093Z,101054.15
2018-07-09T16:22:03.492Z,101051.09
2018-07-09T16:24:31.514Z,101046.08
2018-07-09T16:26:59.552Z,101050.56
2018-07-09T16:29:27.636Z,101055.89
2018-07-09T16:31:55.616Z,101048.97
2018-07-09T16:34:23.637Z,101055.11
2018-07-09T16:36:51.668Z,101055.05
2018-07-09T16:39:19.838Z,101056.89
2018-07-09T16:41:47.862Z,101049.92
2018-07-09T16:44:15.862Z,101050.73
2018-07-09T16:46:43.906Z,101055.78
2018-07-09T16:49:11.864Z,101042.91
2018-07-09T16:51:39.894Z,101052.44
2018-07-09T16:54:07.868Z,101044.47
2018-07-09T16:56:35.875Z,101054.44
2018-07-09T16:59:03.973Z,101053.14
2018-07-09T17:01:32.173Z,101047.77
2018-07-09T17:04:00.232Z,101044.94
2018-07-09T17:06:28.245Z,101053.83
2018-07-09T17:08:56.249Z,101045.00
2018-07-09T17:11:24.410Z,101045.92
2018-07-09T17:13:52.404Z,101045.19
2018-07-09T17:16:20.465Z,101041.33
2018-07-09T17:18:48.476Z,101043.64
2018-07-09T17:21:16.501Z,101042.25
2018-07-09T17:23:44.500Z,101040.41
2018-07-09T17:26:12.533Z,101049.03
2018-07-09T17:28:40.564Z,101040.28
2018-07-09T17:31:08.588Z,101040.19
2018-07-09T17:33:36.593Z,101037.18
2018-07-09T17:36:04.600Z,101036.76
2018-07-09T17:38:32.585Z,101040.91
2018-07-09T17:41:00.565Z,101041.46
2018-07-09T17:43:28.556Z,101036.61
2018-07-09T17:45:56.548Z,101029.14
2018-07-09T17:48:24.528Z,101031.73
2018-07-09T17:50:52.533Z,101033.02
2018-07-09T17:53:20.511Z,101028.43
2018-07-09T17:55:51.017Z,101030.19
2018-07-09T17:58:19.231Z,101025.97
2018-07-09T18:00:47.243Z,101023.28
2018-07-09T18:03:15.221Z,101022.86
2018-07-09T18:05:43.204Z,101026.75
2018-07-09T18:08:11.219Z,101027.59
2018-07-09T18:10:39.327Z,101037.50
2018-07-09T18:13:07.292Z,101036.58
2018-07-09T18:15:35.431Z,101030.42
2018-07-09T18:18:03.672Z,101029.49
2018-07-09T18:20:31.699Z,101030.81
2018-07-09T18:22:59.770Z,101036.52
2018-07-09T18:25:27.767Z,101030.10
2018-07-09T18:27:55.765Z,101023.58
2018-07-09T18:30:23.744Z,101005.19
2018-07-09T18:32:51.750Z,101001.81
2018-07-09T18:35:19.773Z,101017.21
2018-07-09T18:37:47.734Z,101014.91
2018-07-09T18:40:15.726Z,101011.61
2018-07-09T18:42:43.740Z,101011.75
2018-07-09T18:45:12.343Z,101006.59
2018-07-09T18:47:40.390Z,101009.54
2018-07-09T18:50:08.490Z,101010.03
2018-07-09T18:52:37.272Z,101012.89
2018-07-09T18:55:05.449Z,101003.31
2018-07-09T18:57:33.500Z,101011.89
2018-07-09T19:00:01.566Z,101008.00
2018-07-09T19:02:29.572Z,101007.23
2018-07-09T19:04:57.588Z,101005.51
2018-07-09T19:07:27.128Z,101000.14
2018-07-09T19:09:55.197Z,100998.20
2018-07-09T19:12:23.360Z,100998.28
2018-07-09T19:14:51.748Z,100995.37
2018-07-09T19:17:59.773Z,101004.23
2018-07-09T19:20:39.166Z,101003.39
2018-07-09T19:23:07.156Z,100997.86
2018-07-09T19:25:35.128Z,100992.78
2018-07-09T19:28:02.602Z,101004.02
2018-07-09T19:30:29.636Z,100995.34
2018-07-09T19:32:56.678Z,100999.67
2018-07-09T19:35:23.722Z,100991.05
2018-07-09T19:37:51.072Z,100989.37
2018-07-09T19:40:17.828Z,100990.30
2018-07-09T19:42:44.870Z,100986.52
2018-07-09T19:45:11.926Z,100990.37
2018-07-09T19:47:39.005Z,100988.20
2018-07-09T19:50:06.014Z,100990.38
2018-07-09T19:52:33.065Z,100985.38
2018-07-09T19:55:00.135Z,100982.30
2018-07-09T19:57:27.169Z,100985.20
2018-07-09T19:59:54.196Z,100984.81
2018-07-09T20:02:21.253Z,100978.03
2018-07-09T20:04:48.284Z,100974.75
2018-07-09T20:07:15.397Z,100970.93
2018-07-09T20:09:47.933Z,100971.12
2018-07-09T20:12:20.489Z,100969.63
2018-07-09T20:14:53.076Z,100961.02
2018-07-09T20:17:25.313Z,100970.50
2018-07-09T20:19:52.368Z,100961.54
2018-07-09T20:22:19.421Z,100963.13
2018-07-09T20:24:46.458Z,100965.57
2018-07-09T20:27:13.533Z,100968.44
2018-07-09T20:29:40.571Z,100955.22
2018-07-09T20:32:07.643Z,100963.83
2018-07-09T20:34:34.668Z,100966.58
2018-07-09T20:37:01.710Z,100962.15
2018-07-09T20:39:28.779Z,100953.61
2018-07-09T20:41:56.653Z,100946.72
2018-07-09T20:44:23.676Z,100961.34
2018-07-09T20:46:50.741Z,100950.26
2018-07-09T20:49:17.785Z,100958.64
2018-07-09T20:51:44.841Z,100961.77
2018-07-09T20:54:11.900Z,100956.47
2018-07-09T20:56:38.937Z,100963.13
2018-07-09T20:59:05.997Z,100962.15
2018-07-09T21:01:33.034Z,100966.77
2018-07-09T21:04:05.380Z,100963.28
2018-07-09T21:06:32.452Z,100955.63
2018-07-09T21:08:59.665Z,100961.50
2018-07-09T21:11:26.762Z,100953.85
2018-07-09T21:13:53.821Z,100953.98
2018-07-09T21:16:20.970Z,100958.11
2018-07-09T21:18:47.899Z,100955.21
2018-07-09T21:21:14.961Z,100956.14
2018-07-09T21:23:42.021Z,100961.63
2018-07-09T21:26:09.063Z,100951.36
2018-07-09T21:28:36.217Z,100949.92
2018-07-09T21:31:03.216Z,100949.68
2018-07-09T21:33:30.264Z,100940.50
2018-07-09T21:35:57.329Z,100944.63
2018-07-09T21:38:24.390Z,100939.88
2018-07-09T21:40:51.415Z,100918.13
2018-07-09T21:43:18.476Z,100917.73
2018-07-09T21:45:45.511Z,100917.27
2018-07-09T21:48:12.558Z,100919.09
2018-07-09T21:50:39.620Z,100914.73
2018-07-09T21:53:06.657Z,100911.70
2018-07-09T21:55:33.725Z,100913.41
2018-07-09T21:58:00.792Z,100908.30
2018-07-09T22:00:27.825Z,100911.08
2018-07-09T22:02:54.881Z,100907.94
2018-07-09T22:05:22.613Z,100902.72
2018-07-09T22:07:49.669Z,100895.36
2018-07-09T22:10:16.692Z,100895.59
2018-07-09T22:12:43.876Z,100901.03
2018-07-09T22:15:10.902Z,100894.37
2018-07-09T22:17:38.277Z,100901.78
2018-07-09T22:20:05.321Z,100901.28
2018-07-09T22:22:32.742Z,100899.45
2018-07-09T22:24:59.798Z,100896.94
2018-07-09T22:27:27.081Z,100898.13
2018-07-09T22:29:54.113Z,100891.83
2018-07-09T22:32:22.550Z,100886.02
2018-07-09T22:34:50.633Z,100887.59
2018-07-09T22:37:18.768Z,100887.26
2018-07-09T22:39:46.784Z,100892.22
2018-07-09T22:42:14.896Z,100887.23
2018-07-09T22:44:42.947Z,100886.04
2018-07-09T22:47:10.945Z,100886.64
2018-07-09T22:49:38.932Z,100886.75
2018-07-09T22:52:06.938Z,100886.86
2018-07-09T22:54:35.241Z,100882.76
2018-07-09T22:57:03.249Z,100888.57
2018-07-09T22:59:31.245Z,100889.06
2018-07-09T23:01:59.265Z,100888.95
2018-07-09T23:04:27.271Z,100883.36
2018-07-09T23:06:55.276Z,100881.08
2018-07-09T23:09:49.312Z,100891.00
2018-07-09T23:13:28.774Z,100892.47
2018-07-09T23:16:37.489Z,100895.36
2018-07-09T23:19:18.833Z,100885.67
2018-07-09T23:21:59.356Z,100881.43
2018-07-09T23:24:26.853Z,100869.93
2018-07-09T23:26:54.367Z,100871.61
2018-07-09T23:29:21.409Z,100864.13
2018-07-09T23:31:48.880Z,100861.55
2018-07-09T23:34:16.529Z,100861.34
2018-07-09T23:36:43.633Z,100856.49
2018-07-09T23:39:11.132Z,100858.06
2018-07-09T23:41:38.189Z,100853.83
2018-07-09T23:44:05.550Z,100853.23
2018-07-09T23:46:32.797Z,100852.97
2018-07-09T23:48:59.963Z,100849.35
2018-07-09T23:51:27.036Z,100851.51
2018-07-09T23:53:54.464Z,100852.62
2018-07-09T23:58:38.195Z,100851.16
